createdAt,value
2018-09-29T00:02:03.482Z,68.61
2018-09-29T00:04:31.214Z,68.51
2018-09-29T00:06:58.777Z,68.01
2018-09-29T00:09:26.412Z,68.54
2018-09-29T00:11:53.950Z,68.30
2018-09-29T00:14:21.520Z,68.24
2018-09-29T00:16:49.073Z,68.64
2018-09-29T00:19:16.605Z,69.38
2018-09-29T00:21:44.173Z,69.25
2018-09-29T00:24:11.689Z,68.95
2018-09-29T00:26:39.272Z,69.47
2018-09-29T00:29:06.795Z,68.83
2018-09-29T00:31:34.322Z,68.70
2018-09-29T00:34:01.900Z,68.46
2018-09-29T00:36:29.465Z,68.23
2018-09-29T00:38:57.122Z,68.65
2018-09-29T00:41:24.684Z,68.93
2018-09-29T00:43:52.209Z,69.14
2018-09-29T00:46:19.893Z,68.56
2018-09-29T00:48:47.465Z,68.50
2018-09-29T00:51:15.004Z,68.35
2018-09-29T00:53:42.604Z,67.61
2018-09-29T00:56:10.202Z,67.79
2018-09-29T00:58:37.754Z,67.46
2018-09-29T01:01:05.305Z,67.01
2018-09-29T01:03:33.096Z,66.47
2018-09-29T01:06:00.702Z,65.94
2018-09-29T01:08:28.245Z,66.07
2018-09-29T01:10:55.806Z,66.29
2018-09-29T01:13:23.356Z,67.03
2018-09-29T01:15:50.880Z,66.33
2018-09-29T01:18:18.503Z,65.85
2018-09-29T01:20:46.041Z,65.30
2018-09-29T01:23:13.647Z,65.19
2018-09-29T01:25:41.187Z,65.48
2018-09-29T01:28:08.747Z,65.73
2018-09-29T01:30:36.326Z,65.64
2018-09-29T01:33:03.909Z,65.00
2018-09-29T01:35:31.482Z,64.59
2018-09-29T01:37:59.012Z,64.51
2018-09-29T01:40:26.575Z,64.52
2018-09-29T01:42:54.143Z,64.25
2018-09-29T01:45:21.744Z,64.50
2018-09-29T01:47:49.292Z,64.33
2018-09-29T01:50:17.406Z,63.36
2018-09-29T01:52:44.987Z,64.04
2018-09-29T01:55:12.513Z,64.02
2018-09-29T01:57:40.075Z,63.84
2018-09-29T02:00:07.596Z,63.14
2018-09-29T02:02:35.286Z,63.19
2018-09-29T02:05:02.733Z,63.14
2018-09-29T02:07:30.318Z,63.38
2018-09-29T02:09:57.886Z,63.15
2018-09-29T02:12:25.430Z,63.41
2018-09-29T02:14:53.015Z,63.70
2018-09-29T02:17:20.730Z,63.97
2018-09-29T02:19:48.291Z,64.73
2018-09-29T02:22:15.816Z,65.17
2018-09-29T02:24:43.397Z,65.58
2018-09-29T02:27:10.926Z,65.63
2018-09-29T02:29:38.544Z,65.34
2018-09-29T02:32:06.089Z,65.64
2018-09-29T02:34:33.922Z,65.15
2018-09-29T02:37:01.482Z,64.78
2018-09-29T02:39:29.079Z,65.56
2018-09-29T02:41:56.613Z,65.58
2018-09-29T02:44:24.144Z,64.97
2018-09-29T02:46:51.713Z,67.01
2018-09-29T02:49:19.223Z,68.74
2018-09-29T02:51:46.779Z,69.26
2018-09-29T02:54:14.345Z,67.92
2018-09-29T02:56:41.944Z,67.46
2018-09-29T02:59:09.507Z,66.48
2018-09-29T03:01:37.043Z,66.79
2018-09-29T03:04:04.640Z,68.70
2018-09-29T03:06:32.380Z,69.15
2018-09-29T03:08:59.989Z,69.21
2018-09-29T03:11:27.595Z,68.30
2018-09-29T03:13:55.112Z,68.24
2018-09-29T03:16:22.707Z,68.05
2018-09-29T03:18:50.279Z,68.28
2018-09-29T03:21:17.855Z,68.73
2018-09-29T03:23:45.426Z,69.21
2018-09-29T03:26:12.992Z,68.68
2018-09-29T03:28:40.722Z,68.51
2018-09-29T03:31:08.278Z,68.58
2018-09-29T03:33:35.805Z,69.14
2018-09-29T03:36:03.348Z,69.48
2018-09-29T03:38:30.918Z,68.74
2018-09-29T03:40:58.716Z,67.89
2018-09-29T03:43:26.264Z,67.83
2018-09-29T03:45:53.788Z,67.76
2018-09-29T03:48:21.360Z,67.47
2018-09-29T03:50:48.880Z,67.30
2018-09-29T03:53:16.467Z,67.31
2018-09-29T03:55:43.984Z,67.24
2018-09-29T03:58:11.528Z,67.51
2018-09-29T04:00:39.132Z,66.84
2018-09-29T04:03:06.675Z,66.73
2018-09-29T04:05:34.187Z,66.05
2018-09-29T04:08:01.788Z,65.99
2018-09-29T04:10:29.360Z,65.51
2018-09-29T04:12:56.913Z,67.61
2018-09-29T04:15:24.456Z,68.92
2018-09-29T04:17:52.036Z,68.44
2018-09-29T04:20:19.600Z,68.55
2018-09-29T04:22:47.170Z,69.51
2018-09-29T04:25:14.696Z,69.21
2018-09-29T04:27:42.223Z,68.93
2018-09-29T04:30:10.014Z,68.27
2018-09-29T04:32:37.534Z,68.45
2018-09-29T04:35:05.053Z,68.64
2018-09-29T04:37:32.639Z,67.91
2018-09-29T04:40:00.146Z,67.97
2018-09-29T04:42:27.685Z,67.29
2018-09-29T04:44:55.229Z,68.50
2018-09-29T04:47:22.798Z,67.73
2018-09-29T04:49:50.405Z,67.75
2018-09-29T04:52:17.990Z,69.34
2018-09-29T04:54:45.553Z,68.11
2018-09-29T04:57:13.095Z,68.09
2018-09-29T04:59:40.697Z,68.16
2018-09-29T05:02:08.224Z,69.04
2018-09-29T05:04:35.816Z,68.82
2018-09-29T05:07:03.340Z,69.73
2018-09-29T05:09:30.900Z,69.63
2018-09-29T05:11:58.487Z,68.61
2018-09-29T05:14:26.056Z,69.93
2018-09-29T05:16:53.908Z,69.72
2018-09-29T05:19:21.500Z,69.06
2018-09-29T05:21:49.061Z,69.06
2018-09-29T05:24:16.660Z,68.76
2018-09-29T05:26:44.314Z,68.00
2018-09-29T05:29:11.848Z,68.68
2018-09-29T05:31:39.421Z,68.34
2018-09-29T05:34:06.971Z,67.92
2018-09-29T05:36:34.536Z,67.66
2018-09-29T05:39:02.124Z,68.37
2018-09-29T05:41:29.773Z,69.40
2018-09-29T05:43:57.464Z,69.78
2018-09-29T05:46:24.989Z,69.34
2018-09-29T05:48:52.565Z,68.42
2018-09-29T05:51:20.151Z,68.70
2018-09-29T05:53:47.908Z,69.94
2018-09-29T05:56:15.463Z,70.79
2018-09-29T05:58:43.027Z,70.37
2018-09-29T06:01:10.538Z,71.19
2018-09-29T06:03:38.247Z,71.19
2018-09-29T06:06:05.937Z,72.28
2018-09-29T06:08:33.589Z,71.67
2018-09-29T06:11:01.146Z,71.72
2018-09-29T06:13:28.816Z,71.94
2018-09-29T06:15:56.550Z,71.57
2018-09-29T06:18:24.173Z,71.58
2018-09-29T06:20:51.774Z,71.50
2018-09-29T06:23:19.401Z,72.25
2018-09-29T06:25:46.934Z,73.10
2018-09-29T06:28:14.676Z,71.81
2018-09-29T06:30:42.213Z,71.38
2018-09-29T06:33:09.762Z,71.13
2018-09-29T06:35:37.284Z,71.18
2018-09-29T06:38:04.843Z,70.68
2018-09-29T06:40:32.402Z,70.82
2018-09-29T06:42:59.975Z,70.51
2018-09-29T06:45:27.493Z,70.34
2018-09-29T06:47:55.062Z,70.55
2018-09-29T06:50:22.644Z,70.19
2018-09-29T06:52:50.204Z,70.04
2018-09-29T06:55:17.751Z,70.08
2018-09-29T06:57:45.322Z,70.43
2018-09-29T07:00:12.938Z,70.30
2018-09-29T07:02:40.509Z,70.39
2018-09-29T07:05:08.115Z,70.63
2018-09-29T07:07:35.655Z,70.03
2018-09-29T07:10:03.182Z,70.25
2018-09-29T07:12:30.930Z,70.41
2018-09-29T07:14:58.467Z,70.51
2018-09-29T07:17:26.433Z,70.41
2018-09-29T07:19:54.615Z,70.83
2018-09-29T07:22:24.190Z,70.14
2018-09-29T07:24:52.521Z,70.33
2018-09-29T07:27:20.483Z,70.84
2018-09-29T07:29:48.537Z,70.45
2018-09-29T07:32:17.346Z,70.11
2018-09-29T07:34:45.328Z,70.17
2018-09-29T07:37:13.973Z,70.49
2018-09-29T07:39:41.538Z,70.40
2018-09-29T07:42:09.192Z,70.33
2018-09-29T07:44:37.611Z,70.10
2018-09-29T07:47:05.377Z,69.94
2018-09-29T07:49:33.207Z,70.13
2018-09-29T07:52:00.817Z,70.48
2018-09-29T07:54:28.395Z,70.26
2018-09-29T07:56:55.950Z,69.94
2018-09-29T07:59:23.469Z,69.40
2018-09-29T08:01:51.045Z,69.85
2018-09-29T08:04:18.616Z,70.34
2018-09-29T08:06:46.327Z,69.54
2018-09-29T08:09:14.008Z,69.49
2018-09-29T08:11:41.610Z,69.31
2018-09-29T08:14:09.289Z,68.04
2018-09-29T08:16:37.076Z,68.86
2018-09-29T08:19:05.035Z,68.50
2018-09-29T08:21:32.810Z,67.49
2018-09-29T08:24:00.523Z,67.82
2018-09-29T08:26:28.049Z,67.06
2018-09-29T08:28:55.610Z,66.81
2018-09-29T08:31:23.204Z,67.34
2018-09-29T08:33:50.795Z,67.72
2018-09-29T08:36:18.531Z,66.65
2018-09-29T08:38:46.252Z,66.65
2018-09-29T08:41:14.107Z,66.54
2018-09-29T08:43:41.660Z,67.97
2018-09-29T08:46:09.500Z,67.93
2018-09-29T08:48:37.048Z,68.36
2018-09-29T08:51:04.757Z,67.88
2018-09-29T08:53:37.268Z,67.97
2018-09-29T08:56:05.542Z,67.34
2018-09-29T08:58:33.344Z,66.58
2018-09-29T09:01:00.935Z,66.20
2018-09-29T09:03:28.691Z,66.02
2018-09-29T09:05:56.565Z,65.70
2018-09-29T09:08:24.206Z,65.29
2018-09-29T09:10:51.818Z,66.04
2018-09-29T09:13:19.635Z,66.49
2018-09-29T09:15:47.223Z,65.40
2018-09-29T09:18:14.795Z,63.92
2018-09-29T09:20:42.500Z,63.76
2018-09-29T09:23:10.101Z,63.44
2018-09-29T09:25:37.909Z,63.11
2018-09-29T09:28:05.493Z,63.26
2018-09-29T09:30:33.241Z,63.36
2018-09-29T09:33:00.891Z,62.87
2018-09-29T09:35:28.539Z,62.75
2018-09-29T09:37:56.235Z,62.67
2018-09-29T09:40:23.911Z,62.59
2018-09-29T09:42:51.666Z,62.75
2018-09-29T09:45:19.272Z,62.92
2018-09-29T09:47:47.030Z,61.68
2018-09-29T09:50:14.850Z,62.06
2018-09-29T09:52:42.537Z,61.77
2018-09-29T09:55:10.155Z,61.35
2018-09-29T09:57:37.713Z,60.24
2018-09-29T10:00:05.425Z,60.86
2018-09-29T10:02:33.198Z,60.68
2018-09-29T10:05:00.783Z,60.75
2018-09-29T10:07:28.413Z,60.73
2018-09-29T10:09:56.133Z,60.07
2018-09-29T10:12:23.685Z,59.60
2018-09-29T10:14:51.279Z,59.11
2018-09-29T10:17:18.954Z,59.12
2018-09-29T10:19:46.469Z,59.11
2018-09-29T10:22:14.080Z,59.03
2018-09-29T10:24:41.848Z,59.78
2018-09-29T10:27:10.228Z,57.53
2018-09-29T10:29:37.790Z,58.04
2018-09-29T10:32:05.471Z,57.75
2018-09-29T10:34:33.197Z,57.95
2018-09-29T10:37:01.112Z,58.20
2018-09-29T10:39:28.682Z,59.49
2018-09-29T10:41:56.363Z,60.01
2018-09-29T10:44:24.082Z,58.63
2018-09-29T10:46:51.695Z,56.70
2018-09-29T10:49:19.445Z,56.60
2018-09-29T10:51:46.954Z,58.70
2018-09-29T10:54:14.661Z,58.40
2018-09-29T10:56:42.296Z,58.89
2018-09-29T10:59:09.959Z,58.17
2018-09-29T11:01:37.534Z,57.29
2018-09-29T11:04:05.101Z,56.91
2018-09-29T11:06:32.742Z,55.92
2018-09-29T11:09:00.459Z,54.72
2018-09-29T11:11:27.994Z,56.20
2018-09-29T11:13:55.568Z,56.55
2018-09-29T11:16:23.112Z,56.26
2018-09-29T11:18:50.633Z,56.52
2018-09-29T11:21:18.197Z,56.16
2018-09-29T11:23:45.785Z,54.45
2018-09-29T11:26:13.348Z,55.39
2018-09-29T11:28:40.888Z,56.27
2018-09-29T11:31:08.564Z,53.88
2018-09-29T11:33:36.090Z,54.90
2018-09-29T11:36:03.678Z,54.19
2018-09-29T11:38:31.272Z,55.02
2018-09-29T11:40:58.841Z,55.05
2018-09-29T11:43:26.439Z,51.64
2018-09-29T11:45:53.960Z,53.11
2018-09-29T11:48:21.519Z,53.11
2018-09-29T11:50:49.044Z,53.71
2018-09-29T11:53:16.626Z,53.29
2018-09-29T11:55:44.148Z,53.29
2018-09-29T11:58:11.704Z,53.36
2018-09-29T12:00:39.263Z,53.15
2018-09-29T12:03:06.798Z,52.40
2018-09-29T12:05:34.338Z,52.73
2018-09-29T12:08:01.910Z,51.36
2018-09-29T12:10:29.441Z,52.27
2018-09-29T12:12:57.012Z,52.70
2018-09-29T12:15:24.543Z,52.62
2018-09-29T12:17:52.113Z,51.46
2018-09-29T12:20:19.664Z,50.49
2018-09-29T12:22:47.222Z,49.52
2018-09-29T12:25:14.749Z,48.82
2018-09-29T12:27:42.367Z,48.27
2018-09-29T12:30:09.914Z,49.42
2018-09-29T12:32:37.435Z,50.43
2018-09-29T12:35:04.997Z,51.38
2018-09-29T12:37:32.665Z,50.62
2018-09-29T12:40:00.167Z,50.49
2018-09-29T12:42:27.709Z,51.21
2018-09-29T12:44:55.316Z,49.99
2018-09-29T12:47:22.881Z,46.42
2018-09-29T12:49:50.471Z,49.29
2018-09-29T12:52:18.050Z,48.81
2018-09-29T12:54:45.578Z,48.76
2018-09-29T12:57:13.154Z,50.31
2018-09-29T12:59:40.704Z,50.24
2018-09-29T13:02:08.313Z,50.31
2018-09-29T13:04:35.840Z,48.93
2018-09-29T13:07:03.404Z,47.66
2018-09-29T13:09:30.956Z,46.70
2018-09-29T13:11:58.537Z,46.80
2018-09-29T13:14:26.064Z,47.55
2018-09-29T13:16:53.689Z,46.91
2018-09-29T13:19:21.155Z,47.92
2018-09-29T13:21:48.727Z,48.73
2018-09-29T13:24:16.263Z,45.44
2018-09-29T13:26:43.834Z,45.73
2018-09-29T13:29:11.357Z,46.34
2018-09-29T13:31:38.946Z,45.71
2018-09-29T13:34:06.488Z,45.74
2018-09-29T13:36:34.061Z,47.42
2018-09-29T13:39:01.598Z,46.49
2018-09-29T13:41:29.144Z,46.83
2018-09-29T13:43:56.709Z,45.92
2018-09-29T13:46:24.249Z,46.95
2018-09-29T13:48:51.850Z,47.10
2018-09-29T13:51:19.426Z,46.95
2018-09-29T13:53:46.981Z,43.39
2018-09-29T13:56:14.501Z,46.27
2018-09-29T13:58:42.121Z,47.65
2018-09-29T14:01:09.678Z,48.08
2018-09-29T14:03:37.276Z,48.71
2018-09-29T14:06:04.801Z,48.74
2018-09-29T14:08:32.649Z,48.14
2018-09-29T14:11:00.234Z,49.16
2018-09-29T14:13:27.874Z,48.95
2018-09-29T14:15:55.402Z,48.68
2018-09-29T14:18:22.977Z,49.17
2018-09-29T14:20:50.538Z,48.75
2018-09-29T14:23:18.069Z,46.53
2018-09-29T14:25:45.697Z,46.02
2018-09-29T14:28:13.298Z,46.43
2018-09-29T14:30:40.887Z,46.95
2018-09-29T14:33:08.449Z,47.05
2018-09-29T14:35:35.973Z,47.09
2018-09-29T14:38:03.543Z,48.01
2018-09-29T14:40:31.131Z,48.22
2018-09-29T14:42:58.887Z,46.88
2018-09-29T14:45:26.465Z,47.93
2018-09-29T14:47:54.057Z,48.29
2018-09-29T14:50:21.606Z,48.40
2018-09-29T14:52:49.230Z,47.29
2018-09-29T14:55:16.779Z,48.75
2018-09-29T14:57:44.356Z,48.81
2018-09-29T15:00:11.928Z,48.66
2018-09-29T15:02:39.496Z,47.87
2018-09-29T15:05:07.056Z,46.92
2018-09-29T15:07:34.636Z,48.16
2018-09-29T15:10:02.293Z,47.98
2018-09-29T15:12:29.836Z,48.03
2018-09-29T15:14:57.420Z,48.16
2018-09-29T15:17:25.005Z,48.43
2018-09-29T15:19:52.546Z,48.33
2018-09-29T15:22:20.065Z,48.92
2018-09-29T15:24:47.625Z,46.88
2018-09-29T15:27:15.325Z,48.40
2018-09-29T15:29:43.032Z,47.70
2018-09-29T15:32:10.600Z,47.70
2018-09-29T15:34:38.161Z,48.64
2018-09-29T15:37:05.826Z,49.00
2018-09-29T15:39:33.343Z,49.32
2018-09-29T15:42:01.021Z,49.26
2018-09-29T15:44:28.556Z,49.13
2018-09-29T15:46:56.120Z,48.94
2018-09-29T15:49:23.698Z,49.68
2018-09-29T15:51:51.238Z,49.10
2018-09-29T15:54:19.943Z,47.98
2018-09-29T15:56:47.525Z,49.35
2018-09-29T15:59:15.067Z,49.25
2018-09-29T16:01:42.595Z,49.06
2018-09-29T16:04:10.170Z,48.65
2018-09-29T16:06:37.719Z,49.40
2018-09-29T16:09:05.327Z,49.47
2018-09-29T16:11:32.846Z,49.33
2018-09-29T16:14:00.414Z,49.86
2018-09-29T16:16:28.007Z,48.55
2018-09-29T16:18:55.577Z,49.09
2018-09-29T16:21:23.132Z,49.33
2018-09-29T16:23:50.654Z,48.89
2018-09-29T16:26:18.243Z,49.31
2018-09-29T16:28:45.808Z,49.53
2018-09-29T16:31:13.340Z,49.79
2018-09-29T16:33:40.916Z,49.16
2018-09-29T16:36:08.562Z,49.48
2018-09-29T16:38:36.102Z,49.38
2018-09-29T16:41:03.618Z,50.25
2018-09-29T16:43:31.232Z,50.39
2018-09-29T16:45:58.785Z,50.24
2018-09-29T16:48:26.318Z,49.99
2018-09-29T16:50:53.875Z,50.54
2018-09-29T16:53:21.418Z,50.37
2018-09-29T16:55:48.985Z,50.92
2018-09-29T16:58:16.512Z,50.88
2018-09-29T17:00:44.073Z,50.71
2018-09-29T17:03:11.585Z,51.01
2018-09-29T17:05:39.210Z,51.25
2018-09-29T17:08:06.726Z,51.04
2018-09-29T17:10:34.284Z,51.67
2018-09-29T17:13:01.846Z,51.74
2018-09-29T17:15:29.437Z,51.88
2018-09-29T17:17:56.997Z,52.09
2018-09-29T17:20:24.544Z,51.79
2018-09-29T17:22:52.129Z,52.44
2018-09-29T17:25:19.724Z,52.34
2018-09-29T17:27:47.248Z,52.17
2018-09-29T17:30:14.777Z,52.13
2018-09-29T17:32:42.335Z,52.38
2018-09-29T17:35:09.909Z,52.38
2018-09-29T17:37:37.426Z,52.39
2018-09-29T17:40:04.991Z,52.68
2018-09-29T17:42:32.575Z,53.03
2018-09-29T17:45:01.291Z,52.86
2018-09-29T17:47:28.891Z,53.04
2018-09-29T17:49:56.402Z,52.76
2018-09-29T17:52:23.926Z,52.91
2018-09-29T17:54:51.470Z,52.51
2018-09-29T17:57:19.071Z,52.74
2018-09-29T17:59:46.591Z,52.53
2018-09-29T18:02:14.178Z,52.59
2018-09-29T18:04:41.756Z,52.28
2018-09-29T18:07:09.270Z,51.94
2018-09-29T18:09:36.827Z,52.03
2018-09-29T18:12:04.350Z,52.05
2018-09-29T18:14:32.099Z,52.20
2018-09-29T18:16:59.936Z,52.30
2018-09-29T18:19:27.670Z,52.56
2018-09-29T18:21:56.176Z,52.20
2018-09-29T18:24:24.331Z,52.68
2018-09-29T18:26:51.915Z,52.62
2018-09-29T18:29:19.593Z,53.31
2018-09-29T18:31:47.167Z,53.76
2018-09-29T18:34:14.820Z,54.33
2018-09-29T18:36:42.700Z,54.36
2018-09-29T18:39:10.354Z,54.00
2018-09-29T18:41:37.904Z,53.95
2018-09-29T18:44:05.537Z,54.10
2018-09-29T18:46:33.060Z,53.70
2018-09-29T18:49:00.656Z,54.79
2018-09-29T18:51:28.591Z,54.58
2018-09-29T18:53:56.311Z,55.03
2018-09-29T18:56:24.124Z,54.97
2018-09-29T18:58:51.642Z,55.80
2018-09-29T19:01:19.275Z,55.94
2018-09-29T19:03:46.850Z,55.53
2018-09-29T19:06:14.422Z,55.17
2018-09-29T19:08:42.078Z,55.45
2018-09-29T19:11:09.906Z,55.66
2018-09-29T19:13:47.562Z,56.25
2018-09-29T19:16:15.258Z,56.69
2018-09-29T19:18:43.133Z,56.28
2018-09-29T19:21:11.220Z,56.07
2018-09-29T19:23:39.308Z,55.48
2018-09-29T19:26:07.415Z,55.41
2018-09-29T19:31:12.736Z,56.40
2018-09-29T19:33:41.047Z,56.68
2018-09-29T19:36:12.260Z,56.34
2018-09-29T19:41:14.203Z,56.89
2018-09-29T19:43:42.208Z,56.51
2018-09-29T19:46:10.290Z,56.54
2018-09-29T19:48:37.978Z,56.19
2018-09-29T19:51:06.560Z,56.26
2018-09-29T19:53:34.913Z,56.04
2018-09-29T19:56:02.599Z,55.94
2018-09-29T19:58:30.255Z,55.66
2018-09-29T20:00:58.202Z,55.66
2018-09-29T20:03:25.847Z,55.48
2018-09-29T20:05:53.493Z,55.32
2018-09-29T20:08:21.424Z,56.41
2018-09-29T20:10:49.405Z,56.61
2018-09-29T20:13:17.337Z,56.68
2018-09-29T20:15:45.499Z,56.63
2018-09-29T20:18:13.613Z,56.12
2018-09-29T20:20:41.759Z,56.33
2018-09-29T20:23:09.435Z,56.27
2018-09-29T20:25:37.066Z,56.56
2018-09-29T20:28:04.690Z,56.08
2018-09-29T20:30:32.434Z,56.36
2018-09-29T20:33:00.105Z,56.37
2018-09-29T20:35:27.829Z,56.41
2018-09-29T20:37:56.157Z,56.70
2018-09-29T20:40:24.252Z,56.97
2018-09-29T20:42:51.949Z,56.64
2018-09-29T20:45:19.672Z,57.40
2018-09-29T20:47:47.329Z,57.21
2018-09-29T20:50:14.997Z,57.21
2018-09-29T20:52:42.738Z,56.85
2018-09-29T20:55:10.366Z,57.40
2018-09-29T20:57:38.019Z,57.45
2018-09-29T21:00:05.702Z,58.40
2018-09-29T21:02:33.692Z,58.36
2018-09-29T21:05:02.153Z,57.62
2018-09-29T21:07:30.117Z,57.49
2018-09-29T21:09:58.406Z,57.77
2018-09-29T21:12:26.418Z,57.24
2018-09-29T21:14:54.379Z,57.04
2018-09-29T21:17:22.331Z,58.46
2018-09-29T21:19:50.041Z,57.97
2018-09-29T21:22:18.147Z,57.89
2018-09-29T21:24:46.238Z,58.85
2018-09-29T21:27:14.006Z,58.97
2018-09-29T21:29:42.010Z,59.28
2018-09-29T21:32:10.933Z,58.82
2018-09-29T21:34:40.137Z,58.58
2018-09-29T21:37:08.758Z,58.46
2018-09-29T21:39:37.399Z,58.29
2018-09-29T21:42:05.501Z,57.85
2018-09-29T21:44:33.490Z,57.66
2018-09-29T21:47:01.577Z,58.07
2018-09-29T21:49:29.933Z,59.13
2018-09-29T21:51:57.999Z,58.98
2018-09-29T21:54:25.831Z,60.03
2018-09-29T21:56:53.977Z,60.78
2018-09-29T21:59:22.003Z,60.53
2018-09-29T22:01:49.792Z,59.79
2018-09-29T22:04:17.730Z,60.30
2018-09-29T22:06:45.997Z,60.13
2018-09-29T22:09:14.013Z,59.41
2018-09-29T22:11:44.606Z,59.49
2018-09-29T22:14:12.805Z,59.16
2018-09-29T22:16:41.069Z,58.55
2018-09-29T22:19:09.979Z,59.40
2018-09-29T22:21:38.261Z,58.92
2018-09-29T22:24:06.485Z,58.51
2018-09-29T22:26:34.957Z,58.35
2018-09-29T22:29:03.170Z,58.29
2018-09-29T22:31:31.208Z,57.98
2018-09-29T22:33:59.293Z,57.41
2018-09-29T22:36:26.966Z,57.50
2018-09-29T22:38:55.257Z,57.66
2018-09-29T22:41:23.321Z,57.35
2018-09-29T22:43:51.417Z,57.41
2018-09-29T22:46:20.871Z,57.00
2018-09-29T22:48:48.913Z,56.99
2018-09-29T22:51:16.739Z,56.42
2018-09-29T22:53:44.857Z,56.66
2018-09-29T22:56:12.777Z,56.49
2018-09-29T22:58:40.690Z,56.12
2018-09-29T23:01:08.499Z,56.40
2018-09-29T23:03:36.184Z,56.00
2018-09-29T23:06:03.847Z,55.78
2018-09-29T23:08:31.655Z,55.82
2018-09-29T23:10:59.375Z,55.62
2018-09-29T23:13:27.025Z,55.13
2018-09-29T23:15:54.920Z,55.79
2018-09-29T23:18:22.545Z,55.50
2018-09-29T23:20:50.270Z,55.68
2018-09-29T23:23:17.866Z,55.96
2018-09-29T23:25:45.457Z,55.41
2018-09-29T23:28:13.110Z,55.43
2018-09-29T23:30:40.728Z,55.03
2018-09-29T23:33:08.443Z,54.85
2018-09-29T23:35:36.046Z,54.70
2018-09-29T23:38:03.783Z,54.21
2018-09-29T23:40:31.388Z,54.07
2018-09-29T23:42:59.095Z,54.54
2018-09-29T23:45:26.879Z,54.28
2018-09-29T23:47:54.524Z,55.35
2018-09-29T23:50:22.191Z,54.85
2018-09-29T23:52:49.832Z,54.67
2018-09-29T23:55:17.500Z,54.13
2018-09-29T23:57:45.134Z,54.37
